createdAt,value
2018-03-07T00:00:11.279Z,4.8
2018-03-07T00:01:01.067Z,4.7
2018-03-07T00:01:51.414Z,4.8
2018-03-07T00:02:41.446Z,4.8
2018-03-07T00:03:31.514Z,4.8
2018-03-07T00:04:21.576Z,4.8
2018-03-07T00:05:11.349Z,4.8
2018-03-07T00:06:01.733Z,4.8
2018-03-07T00:06:51.463Z,4.8
2018-03-07T00:07:41.827Z,4.8
2018-03-07T00:08:31.849Z,4.8
2018-03-07T00:09:21.627Z,4.8
2018-03-07T00:10:11.981Z,4.8
2018-03-07T00:11:02.047Z,4.8
2018-03-07T00:11:52.102Z,4.8
2018-03-07T00:12:41.856Z,4.8
2018-03-07T00:13:31.922Z,4.8
2018-03-07T00:14:22.245Z,4.8
2018-03-07T00:15:11.745Z,4.8
2018-03-07T00:16:02.364Z,4.8
2018-03-07T00:16:52.432Z,4.8
2018-03-07T00:17:42.481Z,4.8
2018-03-07T00:18:32.272Z,4.8
2018-03-07T00:19:22.028Z,4.9
2018-03-07T00:20:12.428Z,4.9
2018-03-07T00:21:02.718Z,4.9
2018-03-07T00:21:52.763Z,4.9
2018-03-07T00:22:42.840Z,4.9
2018-03-07T00:23:32.880Z,4.9
2018-03-07T00:24:22.665Z,4.9
2018-03-07T00:25:13.008Z,4.9
2018-03-07T00:26:03.067Z,4.9
2018-03-07T00:26:53.118Z,4.9
2018-03-07T00:27:42.910Z,4.9
2018-03-07T00:28:33.228Z,4.9
2018-03-07T00:29:23.286Z,4.9
2018-03-07T00:30:13.062Z,4.9
2018-03-07T00:31:03.398Z,4.9
2018-03-07T00:31:53.458Z,4.9
2018-03-07T00:32:43.225Z,4.9
2018-03-07T00:33:33.572Z,4.9
2018-03-07T00:34:23.360Z,4.9
2018-03-07T00:35:13.681Z,4.9
2018-03-07T00:36:03.467Z,4.9
2018-03-07T00:36:53.810Z,4.9
2018-03-07T00:37:43.854Z,4.9
2018-03-07T00:38:33.909Z,4.9
2018-03-07T00:39:23.705Z,4.9
2018-03-07T00:40:14.025Z,4.9
2018-03-07T00:41:03.334Z,4.9
2018-03-07T00:41:53.881Z,4.9
2018-03-07T00:42:43.724Z,5
2018-03-07T00:43:33.781Z,4.9
2018-03-07T00:44:23.752Z,5
2018-03-07T00:45:13.328Z,4.9
2018-03-07T00:46:03.949Z,4.9
2018-03-07T00:46:54.491Z,4.9
2018-03-07T00:47:44.057Z,5
2018-03-07T00:48:33.837Z,5
2018-03-07T00:49:24.181Z,5
2018-03-07T00:50:14.241Z,5
2018-03-07T00:51:04.318Z,5
2018-03-07T00:51:54.344Z,4.9
2018-03-07T00:52:44.417Z,5
2018-03-07T00:53:34.186Z,5
2018-03-07T00:54:24.535Z,5
2018-03-07T00:55:14.297Z,5
2018-03-07T00:56:04.632Z,5
2018-03-07T00:56:54.700Z,5
2018-03-07T00:57:44.466Z,5
2018-03-07T00:58:34.829Z,5
2018-03-07T00:59:24.860Z,5
2018-03-07T01:00:14.920Z,5.1
2018-03-07T01:01:04.983Z,5
2018-03-07T01:01:54.768Z,5
2018-03-07T01:02:45.091Z,5
2018-03-07T01:03:35.157Z,5
2018-03-07T01:04:25.230Z,5
2018-03-07T01:05:15.266Z,5
2018-03-07T01:06:05.343Z,5
2018-03-07T01:06:55.380Z,5
2018-03-07T01:07:45.150Z,5
2018-03-07T01:08:35.499Z,5
2018-03-07T01:09:25.762Z,5
2018-03-07T01:10:15.614Z,5
2018-03-07T01:11:05.388Z,5
2018-03-07T01:11:55.742Z,5.1
2018-03-07T01:12:45.980Z,5
2018-03-07T01:13:36.334Z,5.1
2018-03-07T01:14:26.113Z,5.1
2018-03-07T01:15:15.947Z,5.1
2018-03-07T01:16:06.218Z,5.1
2018-03-07T01:16:56.283Z,5.1
2018-03-07T01:17:45.850Z,5.1
2018-03-07T01:18:36.662Z,5.1
2018-03-07T01:19:26.488Z,5.1
2018-03-07T01:20:16.785Z,5.1
2018-03-07T01:21:06.560Z,5.1
2018-03-07T01:21:56.622Z,5.1
2018-03-07T01:22:46.673Z,5.1
2018-03-07T01:23:37.015Z,5.1
2018-03-07T01:24:27.131Z,5
2018-03-07T01:25:16.843Z,5.1
2018-03-07T01:26:07.197Z,5.1
2018-03-07T01:26:57.255Z,5.1
2018-03-07T01:27:47.017Z,5.1
2018-03-07T01:28:37.067Z,5.1
2018-03-07T01:29:27.432Z,5.1
2018-03-07T01:30:17.181Z,5.1
2018-03-07T01:31:07.247Z,5.1
2018-03-07T01:31:57.581Z,5.1
2018-03-07T01:32:47.358Z,5.1
2018-03-07T01:33:37.693Z,5.1
2018-03-07T01:34:27.464Z,5
2018-03-07T01:35:17.854Z,5.1
2018-03-07T01:36:07.882Z,5.1
2018-03-07T01:36:57.925Z,5
2018-03-07T01:37:47.981Z,5
2018-03-07T01:38:38.052Z,5.1
2018-03-07T01:39:28.102Z,5
2018-03-07T01:40:17.880Z,5
2018-03-07T01:41:07.934Z,5
2018-03-07T01:41:58.284Z,5
2018-03-07T01:42:47.776Z,5.1
2018-03-07T01:43:38.394Z,5.1
2018-03-07T01:44:28.456Z,5
2018-03-07T01:45:18.501Z,5
2018-03-07T01:46:08.585Z,5.1
2018-03-07T01:46:58.333Z,5.1
2018-03-07T01:47:48.448Z,5
2018-03-07T01:48:38.748Z,5
2018-03-07T01:49:28.788Z,5
2018-03-07T01:50:18.857Z,5
2018-03-07T01:51:08.901Z,5
2018-03-07T01:51:58.969Z,5
2018-03-07T01:52:48.728Z,5
2018-03-07T01:53:38.803Z,5
2018-03-07T01:54:28.859Z,5
2018-03-07T01:55:19.185Z,5
2018-03-07T01:56:08.972Z,5
2018-03-07T01:56:58.747Z,4.9
2018-03-07T01:57:49.360Z,4.9
2018-03-07T01:58:39.418Z,4.9
2018-03-07T01:59:29.205Z,4.9
2018-03-07T02:00:19.537Z,5
2018-03-07T02:01:09.590Z,4.9
2018-03-07T02:01:59.372Z,4.9
2018-03-07T02:02:49.705Z,4.9
2018-03-07T02:03:39.787Z,4.9
2018-03-07T02:04:29.827Z,4.9
2018-03-07T02:05:19.592Z,4.9
2018-03-07T02:06:09.662Z,4.9
2018-03-07T02:06:59.715Z,4.9
2018-03-07T02:07:49.780Z,4.9
2018-03-07T02:08:40.115Z,4.9
2018-03-07T02:09:30.175Z,4.9
2018-03-07T02:10:19.942Z,4.9
2018-03-07T02:11:09.997Z,4.9
2018-03-07T02:12:00.329Z,4.9
2018-03-07T02:12:49.919Z,4.9
2018-03-07T02:13:40.473Z,4.9
2018-03-07T02:14:30.321Z,4.9
2018-03-07T02:15:20.588Z,4.9
2018-03-07T02:16:10.044Z,4.9
2018-03-07T02:17:00.412Z,4.8
2018-03-07T02:17:50.268Z,4.8
2018-03-07T02:18:40.823Z,4.9
2018-03-07T02:19:30.370Z,4.8
2018-03-07T02:20:20.626Z,4.8
2018-03-07T02:21:10.965Z,4.8
2018-03-07T02:22:00.746Z,4.8
2018-03-07T02:22:50.518Z,4.8
2018-03-07T02:23:40.466Z,4.8
2018-03-07T02:24:30.935Z,4.8
2018-03-07T02:25:20.976Z,4.8
2018-03-07T02:26:11.315Z,4.8
2018-03-07T02:27:01.100Z,4.8
2018-03-07T02:27:51.162Z,4.8
2018-03-07T02:28:41.014Z,4.8
2018-03-07T02:29:31.535Z,4.8
2018-03-07T02:30:20.827Z,4.8
2018-03-07T02:31:11.380Z,4.8
2018-03-07T02:32:01.443Z,4.8
2018-03-07T02:32:51.226Z,4.8
2018-03-07T02:33:41.555Z,4.8
2018-03-07T02:34:31.623Z,4.8
2018-03-07T02:35:21.680Z,4.8
2018-03-07T02:36:12.029Z,4.8
2018-03-07T02:37:02.092Z,4.7
2018-03-07T02:37:51.552Z,4.7
2018-03-07T02:38:41.410Z,4.7
2018-03-07T02:39:31.761Z,4.7
2018-03-07T02:40:22.020Z,4.7
2018-03-07T02:41:12.162Z,4.7
2018-03-07T02:42:01.845Z,4.7
2018-03-07T02:42:51.985Z,4.7
2018-03-07T02:43:42.542Z,4.6
2018-03-07T02:44:32.014Z,4.6
2018-03-07T02:45:22.868Z,4.6
2018-03-07T02:46:12.722Z,4.6
2018-03-07T02:47:02.495Z,4.6
2018-03-07T02:47:52.532Z,4.6
2018-03-07T02:48:42.571Z,4.6
2018-03-07T02:49:32.640Z,4.6
2018-03-07T02:50:22.986Z,4.6
2018-03-07T02:51:13.051Z,4.6
2018-03-07T02:52:03.109Z,4.6
2018-03-07T02:52:53.167Z,4.6
2018-03-07T02:53:42.930Z,4.6
2018-03-07T02:54:33.272Z,4.6
2018-03-07T02:55:23.329Z,4.5
2018-03-07T02:56:13.377Z,4.5
2018-03-07T02:57:03.146Z,4.5
2018-03-07T02:57:53.222Z,4.5
2018-03-07T02:58:43.266Z,4.5
2018-03-07T02:59:33.603Z,4.5
2018-03-07T03:00:23.385Z,4.5
2018-03-07T03:01:13.729Z,4.4
2018-03-07T03:02:03.787Z,4.4
2018-03-07T03:02:53.868Z,4.4
2018-03-07T03:03:43.929Z,4.4
2018-03-07T03:04:33.965Z,4.4
2018-03-07T03:05:24.021Z,4.4
2018-03-07T03:06:13.787Z,4.4
2018-03-07T03:07:03.848Z,4.4
2018-03-07T03:07:53.909Z,4.4
2018-03-07T03:08:44.228Z,4.3
2018-03-07T03:09:34.287Z,4.3
2018-03-07T03:10:24.347Z,4.3
2018-03-07T03:11:14.414Z,4.3
2018-03-07T03:12:04.460Z,4.3
2018-03-07T03:12:54.530Z,4.3
2018-03-07T03:13:44.321Z,4.3
2018-03-07T03:14:34.640Z,4.3
2018-03-07T03:15:24.432Z,4.2
2018-03-07T03:16:14.768Z,4.3
2018-03-07T03:17:04.815Z,4.2
2018-03-07T03:17:54.577Z,4.2
2018-03-07T03:18:44.955Z,4.2
2018-03-07T03:19:34.997Z,4.2
2018-03-07T03:20:25.037Z,4.1
2018-03-07T03:21:15.085Z,4.1
2018-03-07T03:22:05.144Z,4.1
2018-03-07T03:22:54.933Z,4.1
2018-03-07T03:23:45.274Z,4.1
2018-03-07T03:24:35.332Z,4.1
2018-03-07T03:25:25.373Z,4.1
2018-03-07T03:26:15.155Z,4.1
2018-03-07T03:27:05.646Z,4
2018-03-07T03:27:55.259Z,4
2018-03-07T03:28:45.646Z,4
2018-03-07T03:29:35.674Z,3.9
2018-03-07T03:30:25.168Z,3.9
2018-03-07T03:31:15.508Z,3.9
2018-03-07T03:32:05.562Z,3.9
2018-03-07T03:32:55.682Z,3.9
2018-03-07T03:33:45.390Z,3.9
2018-03-07T03:34:35.740Z,3.9
2018-03-07T03:35:26.089Z,3.8
2018-03-07T03:36:15.859Z,3.8
2018-03-07T03:37:05.904Z,3.8
2018-03-07T03:37:56.261Z,3.8
2018-03-07T03:38:46.316Z,3.8
2018-03-07T03:39:36.383Z,3.8
2018-03-07T03:40:26.447Z,3.7
2018-03-07T03:41:15.999Z,3.8
2018-03-07T03:42:06.236Z,3.7
2018-03-07T03:42:56.576Z,3.7
2018-03-07T03:43:46.381Z,3.6
2018-03-07T03:44:36.691Z,3.6
2018-03-07T03:45:26.775Z,3.6
2018-03-07T03:46:16.808Z,3.6
2018-03-07T03:47:06.883Z,3.6
2018-03-07T03:47:56.941Z,3.6
2018-03-07T03:48:47.013Z,3.5
2018-03-07T03:49:37.066Z,3.5
2018-03-07T03:50:26.542Z,3.5
2018-03-07T03:51:17.153Z,3.4
2018-03-07T03:52:07.204Z,3.4
2018-03-07T03:52:57.280Z,3.4
2018-03-07T03:53:47.325Z,3.4
2018-03-07T03:54:37.369Z,3.4
2018-03-07T03:55:27.446Z,3.4
2018-03-07T03:56:17.491Z,3.4
2018-03-07T03:57:07.560Z,3.3
2018-03-07T03:57:57.617Z,3.3
2018-03-07T03:58:47.390Z,3.3
2018-03-07T03:59:37.450Z,3.3
2018-03-07T04:00:27.780Z,3.3
2018-03-07T04:01:17.587Z,3.3
2018-03-07T04:02:07.613Z,3.3
2018-03-07T04:02:57.725Z,3.2
2018-03-07T04:03:48.008Z,3.2
2018-03-07T04:04:38.070Z,3.2
2018-03-07T04:05:27.840Z,3.2
2018-03-07T04:06:18.187Z,3.1
2018-03-07T04:07:07.969Z,3.1
2018-03-07T04:07:58.004Z,3.1
2018-03-07T04:08:48.093Z,3.1
2018-03-07T04:09:38.410Z,3.1
2018-03-07T04:10:28.472Z,3.1
2018-03-07T04:11:18.540Z,3.1
2018-03-07T04:12:08.590Z,3.1
2018-03-07T04:12:58.652Z,3
2018-03-07T04:13:48.139Z,3
2018-03-07T04:14:38.767Z,3
2018-03-07T04:15:28.244Z,2.9
2018-03-07T04:16:18.910Z,2.9
2018-03-07T04:17:08.950Z,2.9
2018-03-07T04:17:58.979Z,2.9
2018-03-07T04:18:48.754Z,2.9
2018-03-07T04:19:38.828Z,2.9
2018-03-07T04:20:29.165Z,2.9
2018-03-07T04:21:19.242Z,2.9
2018-03-07T04:22:09.000Z,2.9
2018-03-07T04:22:59.067Z,2.9
2018-03-07T04:23:49.384Z,2.8
2018-03-07T04:24:39.441Z,2.8
2018-03-07T04:25:29.458Z,2.8
2018-03-07T04:26:19.289Z,2.8
2018-03-07T04:27:09.621Z,2.8
2018-03-07T04:27:59.713Z,2.8
2018-03-07T04:28:49.454Z,2.8
2018-03-07T04:29:39.533Z,2.8
2018-03-07T04:30:29.553Z,2.8
2018-03-07T04:31:19.896Z,2.7
2018-03-07T04:32:09.949Z,2.8
2018-03-07T04:32:59.739Z,2.7
2018-03-07T04:33:50.072Z,2.7
2018-03-07T04:34:39.851Z,2.7
2018-03-07T04:35:29.904Z,2.7
2018-03-07T04:36:20.263Z,2.7
2018-03-07T04:37:10.315Z,2.7
2018-03-07T04:38:00.357Z,2.6
2018-03-07T04:38:50.425Z,2.6
2018-03-07T04:39:40.506Z,2.6
2018-03-07T04:40:30.543Z,2.6
2018-03-07T04:41:20.305Z,2.6
2018-03-07T04:42:10.655Z,2.6
2018-03-07T04:43:00.710Z,2.6
2018-03-07T04:43:50.753Z,2.6
2018-03-07T04:44:40.833Z,2.6
2018-03-07T04:45:30.615Z,2.6
2018-03-07T04:46:20.945Z,2.6
2018-03-07T04:47:10.985Z,2.6
2018-03-07T04:48:01.044Z,2.6
2018-03-07T04:48:51.125Z,2.6
2018-03-07T04:49:40.880Z,2.6
2018-03-07T04:50:30.939Z,2.6
2018-03-07T04:51:21.267Z,2.5
2018-03-07T04:52:11.067Z,2.5
2018-03-07T04:53:01.427Z,2.6
2018-03-07T04:53:51.464Z,2.6
2018-03-07T04:54:41.235Z,2.6
2018-03-07T04:55:30.984Z,85
2018-03-07T04:56:21.357Z,2.6
2018-03-07T04:57:11.722Z,2.6
2018-03-07T04:58:01.754Z,2.6
2018-03-07T04:58:51.789Z,2.6
2018-03-07T04:59:41.565Z,2.6
2018-03-07T05:00:31.897Z,2.6
2018-03-07T05:01:21.979Z,2.6
2018-03-07T05:02:11.729Z,2.6
2018-03-07T05:03:02.071Z,2.7
2018-03-07T05:03:52.125Z,2.7
2018-03-07T05:04:42.177Z,2.8
2018-03-07T05:05:31.952Z,2.8
2018-03-07T05:06:22.299Z,2.8
2018-03-07T05:07:12.347Z,2.8
2018-03-07T05:08:02.439Z,2.9
2018-03-07T05:08:52.189Z,2.9
2018-03-07T05:09:42.239Z,3
2018-03-07T05:10:32.375Z,3
2018-03-07T05:11:22.637Z,3.1
2018-03-07T05:12:12.723Z,3.1
2018-03-07T05:13:02.747Z,3.1
2018-03-07T05:13:52.238Z,3.2
2018-03-07T05:14:42.591Z,3.3
2018-03-07T05:15:32.918Z,3.3
2018-03-07T05:16:22.989Z,3.3
2018-03-07T05:17:13.052Z,3.4
2018-03-07T05:18:03.165Z,3.4
2018-03-07T05:18:53.148Z,3.4
2018-03-07T05:19:43.203Z,3.5
2018-03-07T05:20:33.289Z,3.6
2018-03-07T05:21:23.362Z,3.6
2018-03-07T05:22:13.417Z,3.7
2018-03-07T05:23:03.457Z,3.8
2018-03-07T05:23:52.922Z,3.8
2018-03-07T05:24:43.550Z,3.9
2018-03-07T05:25:33.619Z,3.9
2018-03-07T05:26:23.372Z,4
2018-03-07T05:27:13.737Z,4.1
2018-03-07T05:28:03.787Z,4.1
2018-03-07T05:28:53.853Z,4.2
2018-03-07T05:29:43.599Z,4.3
2018-03-07T05:30:33.667Z,4.3
2018-03-07T05:31:24.043Z,4.4
2018-03-07T05:32:14.080Z,4.5
2018-03-07T05:33:04.113Z,4.6
2018-03-07T05:33:53.888Z,4.7
2018-03-07T05:34:44.252Z,4.8
2018-03-07T05:35:34.325Z,4.8
2018-03-07T05:36:24.358Z,4.9
2018-03-07T05:37:14.421Z,5
2018-03-07T05:38:04.473Z,5.1
2018-03-07T05:38:54.535Z,5.2
2018-03-07T05:39:44.573Z,5.4
2018-03-07T05:40:34.346Z,5.4
2018-03-07T05:41:24.697Z,5.6
2018-03-07T05:42:14.743Z,5.7
2018-03-07T05:43:04.823Z,5.9
2018-03-07T05:43:54.581Z,6
2018-03-07T05:44:44.639Z,6.1
2018-03-07T05:45:34.404Z,6.3
2018-03-07T05:46:25.027Z,6.4
2018-03-07T05:47:14.825Z,6.6
2018-03-07T05:48:05.141Z,6.8
2018-03-07T05:48:55.208Z,6.9
2018-03-07T05:49:45.271Z,7.1
2018-03-07T05:50:35.336Z,7.2
2018-03-07T05:51:25.080Z,7.4
2018-03-07T05:52:15.450Z,7.6
2018-03-07T05:53:05.258Z,7.8
2018-03-07T05:53:55.538Z,7.9
2018-03-07T05:54:45.338Z,8.1
2018-03-07T05:55:35.091Z,8.3
2018-03-07T05:56:25.731Z,8.4
2018-03-07T05:57:15.489Z,8.6
2018-03-07T05:58:05.821Z,8.9
2018-03-07T05:58:55.878Z,9.1
2018-03-07T05:59:45.957Z,9.3
2018-03-07T06:00:36.015Z,9.5
2018-03-07T06:01:26.083Z,9.7
2018-03-07T06:02:15.847Z,9.9
2018-03-07T06:03:06.205Z,10.1
2018-03-07T06:03:56.218Z,10.3
2018-03-07T06:04:46.272Z,8.1
2018-03-07T06:05:36.348Z,9.6
2018-03-07T06:06:26.118Z,12.8
2018-03-07T06:07:16.183Z,13.6
2018-03-07T06:08:05.954Z,15.5
2018-03-07T06:08:56.567Z,19.4
2018-03-07T06:09:46.622Z,20.7
2018-03-07T06:10:36.114Z,20.1
2018-03-07T06:11:26.735Z,18.8
2018-03-07T06:12:16.832Z,17.7
2018-03-07T06:13:06.579Z,17.3
2018-03-07T06:13:56.922Z,17.4
2018-03-07T06:14:46.689Z,18
2018-03-07T06:15:37.029Z,18.6
2018-03-07T06:16:27.079Z,19
2018-03-07T06:17:17.186Z,19.2
2018-03-07T06:18:07.192Z,19.2
2018-03-07T06:18:57.264Z,19.1
2018-03-07T06:19:47.033Z,19.1
2018-03-07T06:20:37.368Z,19.2
2018-03-07T06:21:26.962Z,19.4
2018-03-07T06:22:16.999Z,19.6
2018-03-07T06:23:07.076Z,19.8
2018-03-07T06:23:57.111Z,19.9
2018-03-07T06:24:46.878Z,20.1
2018-03-07T06:25:37.236Z,20.2
2018-03-07T06:26:27.279Z,20.3
2018-03-07T06:27:17.861Z,20.4
2018-03-07T06:28:07.397Z,20.6
2018-03-07T06:28:57.938Z,20.8
2018-03-07T06:29:47.714Z,20.9
2018-03-07T06:30:38.054Z,21.1
2018-03-07T06:31:27.880Z,21.3
2018-03-07T06:32:18.164Z,21.4
2018-03-07T06:33:08.243Z,21.6
2018-03-07T06:33:58.289Z,21.8
2018-03-07T06:34:48.064Z,21.9
2018-03-07T06:35:38.415Z,22.1
2018-03-07T06:36:28.463Z,22.2
2018-03-07T06:37:18.228Z,22.4
2018-03-07T06:38:08.005Z,22.5
2018-03-07T06:38:58.651Z,22.7
2018-03-07T06:39:48.215Z,22.8
2018-03-07T06:40:38.770Z,23
2018-03-07T06:41:28.523Z,23.2
2018-03-07T06:42:18.294Z,23.3
2018-03-07T06:43:08.145Z,23.5
2018-03-07T06:43:58.407Z,23.6
2018-03-07T06:44:48.768Z,23.8
2018-03-07T06:45:38.527Z,23.9
2018-03-07T06:46:28.682Z,24.1
2018-03-07T06:47:19.012Z,24.3
2018-03-07T06:48:08.785Z,24.5
2018-03-07T06:48:58.849Z,24.7
2018-03-07T06:49:48.610Z,24.8
2018-03-07T06:50:38.675Z,24.9
2018-03-07T06:51:29.214Z,25.1
2018-03-07T06:52:18.794Z,25.3
2018-03-07T06:53:09.601Z,25.4
2018-03-07T06:53:58.892Z,25.7
2018-03-07T06:54:49.438Z,25.9
2018-03-07T06:55:39.772Z,26
2018-03-07T06:56:29.577Z,26.2
2018-03-07T06:57:19.604Z,26.4
2018-03-07T06:58:09.679Z,26.6
2018-03-07T06:58:59.735Z,26.8
2018-03-07T06:59:50.076Z,26.9
2018-03-07T07:00:40.127Z,27.1
2018-03-07T07:01:29.913Z,27.3
2018-03-07T07:02:19.957Z,27.4
2018-03-07T07:03:10.302Z,27.6
2018-03-07T07:04:50.414Z,28
2018-03-07T07:05:40.464Z,28.1
2018-03-07T07:06:30.564Z,28.3
2018-03-07T07:07:20.597Z,28.5
2018-03-07T07:08:10.684Z,28.7
2018-03-07T07:09:00.447Z,28.8
2018-03-07T07:09:50.482Z,29
2018-03-07T07:10:40.810Z,29.2
2018-03-07T07:11:30.876Z,29.4
2018-03-07T07:12:20.951Z,29.6
2018-03-07T07:13:11.014Z,29.8
2018-03-07T07:14:01.056Z,29.9
2018-03-07T07:14:50.546Z,30.1
2018-03-07T07:15:40.690Z,30.3
2018-03-07T07:16:30.748Z,30.5
2018-03-07T07:17:20.237Z,30.6
2018-03-07T07:18:11.355Z,30.8
2018-03-07T07:19:00.635Z,31
2018-03-07T07:19:51.181Z,31.2
2018-03-07T07:20:40.940Z,31.3
2018-03-07T07:21:31.298Z,31.5
2018-03-07T07:22:21.063Z,31.7
2018-03-07T07:23:11.223Z,31.9
2018-03-07T07:24:01.772Z,32.1
2018-03-07T07:24:51.530Z,32.3
2018-03-07T07:25:41.490Z,32.4
2018-03-07T07:26:31.917Z,32.6
2018-03-07T07:27:22.034Z,32.8
2018-03-07T07:28:12.060Z,33
2018-03-07T07:29:02.105Z,33.2
2018-03-07T07:29:51.893Z,33.4
2018-03-07T07:30:42.225Z,33.6
2018-03-07T07:31:32.269Z,33.8
2018-03-07T07:32:22.049Z,33.9
2018-03-07T07:33:12.130Z,34.1
2018-03-07T07:34:02.495Z,34.3
2018-03-07T07:34:52.239Z,34.4
2018-03-07T07:35:41.997Z,34.6
2018-03-07T07:36:32.347Z,34.8
2018-03-07T07:37:22.748Z,34.9
2018-03-07T07:38:12.474Z,35.1
2018-03-07T07:39:02.823Z,35.4
2018-03-07T07:39:52.885Z,35.5
2018-03-07T07:40:42.572Z,35.7
2018-03-07T07:41:32.985Z,35.9
2018-03-07T07:42:23.039Z,36.1
2018-03-07T07:43:13.096Z,36.3
2018-03-07T07:44:03.198Z,36.4
2018-03-07T07:44:53.216Z,36.6
2018-03-07T07:45:43.005Z,36.8
2018-03-07T07:46:33.317Z,36.9
2018-03-07T07:47:23.511Z,37.1
2018-03-07T07:48:13.448Z,37.3
2018-03-07T07:49:03.247Z,37.4
2018-03-07T07:49:53.286Z,37.6
2018-03-07T07:50:43.397Z,37.8
2018-03-07T07:51:33.401Z,37.4
2018-03-07T07:52:23.737Z,37.2
2018-03-07T07:53:13.819Z,37.3
2018-03-07T07:55:22.143Z,37.5
2018-03-07T07:55:32.916Z,38
2018-03-07T07:56:22.724Z,38
2018-03-07T07:57:13.062Z,38.1
2018-03-07T07:58:03.114Z,38.3
2018-03-07T07:58:53.448Z,38.4
2018-03-07T07:59:43.530Z,38.6
2018-03-07T08:00:33.577Z,38.8
2018-03-07T08:01:23.360Z,39
2018-03-07T08:02:13.517Z,39
2018-03-07T08:03:03.474Z,39.1
2018-03-07T08:03:53.321Z,39.3
2018-03-07T08:05:07.269Z,39.7
2018-03-07T08:05:57.747Z,39.7
2018-03-07T08:06:47.661Z,39.9
2018-03-07T08:07:37.733Z,40.1
2018-03-07T08:08:40.527Z,40.4
2018-03-07T08:09:18.133Z,40.5
2018-03-07T08:10:07.930Z,40.6
2018-03-07T08:10:58.255Z,40.8
2018-03-07T08:12:38.616Z,41.3
2018-03-07T08:13:29.158Z,41.3
2018-03-07T08:14:18.965Z,41.4
2018-03-07T08:15:08.970Z,41.6
2018-03-07T08:16:49.618Z,42.1
2018-03-07T08:17:39.902Z,42.2
2018-03-07T08:18:29.945Z,42.3
2018-03-07T08:19:20.002Z,42.5
2018-03-07T08:20:10.065Z,42.7
2018-03-07T08:20:59.550Z,42.8
2018-03-07T08:21:50.190Z,43
2018-03-07T08:22:40.252Z,43.1
2018-03-07T08:23:30.012Z,43.3
2018-03-07T08:24:20.356Z,43.4
2018-03-07T08:25:10.412Z,43.6
2018-03-07T08:26:00.494Z,43.8
2018-03-07T08:26:50.534Z,43.9
2018-03-07T08:27:40.444Z,44.1
2018-03-07T08:28:30.652Z,44.2
2018-03-07T08:29:20.720Z,44.3
2018-03-07T08:30:10.775Z,44.5
2018-03-07T08:31:00.826Z,44.6
2018-03-07T08:31:50.891Z,44.8
2018-03-07T08:32:40.954Z,44.9
2018-03-07T08:33:31.002Z,45.1
2018-03-07T08:34:20.774Z,45.3
2018-03-07T08:35:11.129Z,45.4
2018-03-07T08:36:01.172Z,45.6
2018-03-07T08:36:51.229Z,45.8
2018-03-07T08:37:41.304Z,45.9
2018-03-07T08:38:31.374Z,46.1
2018-03-07T08:39:21.411Z,46.2
2018-03-07T08:40:11.473Z,46.4
2018-03-07T08:41:01.247Z,46.5
2018-03-07T08:41:51.603Z,46.6
2018-03-07T08:42:41.364Z,46.8
2018-03-07T08:43:31.719Z,46.9
2018-03-07T08:44:21.768Z,46.5
2018-03-07T08:45:11.816Z,46.3
2018-03-07T08:46:02.105Z,46.3
2018-03-07T08:46:51.945Z,46.4
2018-03-07T08:47:41.991Z,46.5
2018-03-07T08:48:32.059Z,46.6
2018-03-07T08:49:22.117Z,46.8
2018-03-07T08:50:12.184Z,47.1
2018-03-07T08:51:02.228Z,47.2
2018-03-07T08:51:52.280Z,47.3
2018-03-07T08:52:42.344Z,47.4
2018-03-07T08:53:32.399Z,47.6
2018-03-07T08:54:22.175Z,47.7
2018-03-07T08:55:12.538Z,47.9
2018-03-07T08:56:02.594Z,48.1
2018-03-07T08:56:52.348Z,48.3
2018-03-07T08:57:42.705Z,48.4
2018-03-07T08:58:32.760Z,48.1
2018-03-07T08:59:22.827Z,47.9
2018-03-07T09:00:12.578Z,48.1
2018-03-07T09:01:02.638Z,48.3
2018-03-07T09:01:52.710Z,48.4
2018-03-07T09:02:43.077Z,48.7
2018-03-07T09:03:32.528Z,48.8
2018-03-07T09:04:23.195Z,48.9
2018-03-07T09:05:12.932Z,49.1
2018-03-07T09:06:03.010Z,49
2018-03-07T09:06:53.356Z,48.9
2018-03-07T09:07:43.117Z,48.9
2018-03-07T09:08:33.442Z,49.1
2018-03-07T09:09:23.229Z,49.4
2018-03-07T09:10:13.676Z,49.7
2018-03-07T09:11:03.630Z,49.9
2018-03-07T09:11:53.684Z,50.1
2018-03-07T09:12:43.770Z,50.1
2018-03-07T09:13:33.838Z,50.2
2018-03-07T09:14:23.570Z,50.3
2018-03-07T09:15:13.942Z,50.5
2018-03-07T09:16:03.987Z,50.8
2018-03-07T09:16:54.044Z,50.8
2018-03-07T09:17:44.108Z,51
2018-03-07T09:18:33.884Z,51.1
2018-03-07T09:19:23.928Z,51.3
2018-03-07T09:20:14.317Z,51.4
2018-03-07T09:21:04.347Z,51.6
2018-03-07T09:21:54.394Z,51.7
2018-03-07T09:22:44.441Z,51.8
2018-03-07T09:23:34.532Z,51.9
2018-03-07T09:24:24.571Z,52
2018-03-07T09:25:14.639Z,52.2
2018-03-07T09:26:04.399Z,52.3
2018-03-07T09:26:54.761Z,52.3
2018-03-07T09:27:44.811Z,52.5
2018-03-07T09:28:34.604Z,52.6
2018-03-07T09:29:24.921Z,52.8
2018-03-07T09:30:14.399Z,52.9
2018-03-07T09:31:04.738Z,52.1
2018-03-07T09:31:55.111Z,51.6
2018-03-07T09:32:45.148Z,51.7
2018-03-07T09:33:34.631Z,51.8
2018-03-07T09:35:15.330Z,52.2
2018-03-07T09:36:55.158Z,52.5
2018-03-07T09:37:45.505Z,52.6
2018-03-07T09:38:35.281Z,52.7
2018-03-07T09:39:25.640Z,52.9
2018-03-07T09:40:15.675Z,53
2018-03-07T09:41:05.456Z,53.1
2018-03-07T09:41:55.526Z,53.3
2018-03-07T09:42:45.863Z,53.5
2018-03-07T09:43:35.918Z,53.6
2018-03-07T09:44:26.002Z,53.7
2018-03-07T09:45:16.048Z,53.8
2018-03-07T09:46:06.081Z,53.9
2018-03-07T09:46:55.853Z,54.1
2018-03-07T09:47:46.200Z,54.1
2018-03-07T09:48:35.771Z,54.1
2018-03-07T09:49:25.841Z,54.1
2018-03-07T09:50:15.608Z,54
2018-03-07T09:51:06.456Z,53.8
2018-03-07T09:51:56.003Z,53.8
2018-03-07T09:52:45.587Z,54
2018-03-07T09:53:35.852Z,54.4
2018-03-07T09:54:26.190Z,54.7
2018-03-07T09:55:15.977Z,54.9
2018-03-07T09:56:06.455Z,55
2018-03-07T09:56:56.415Z,55.1
2018-03-07T09:57:46.142Z,55.3
2018-03-07T09:58:36.489Z,55.3
2018-03-07T09:59:26.551Z,55.4
2018-03-07T10:00:16.026Z,55.5
2018-03-07T10:01:06.385Z,55.7
2018-03-07T10:01:56.493Z,55.8
2018-03-07T10:02:46.785Z,55.9
2018-03-07T10:03:36.644Z,56
2018-03-07T10:04:26.526Z,56.1
2018-03-07T10:05:16.938Z,55.9
2018-03-07T10:06:06.732Z,55.8
2018-03-07T10:06:57.260Z,55.8
2018-03-07T10:07:47.118Z,55.9
2018-03-07T10:08:37.165Z,56.1
2018-03-07T10:09:27.231Z,56.3
2018-03-07T10:10:17.325Z,56.3
2018-03-07T10:11:07.072Z,56.4
2018-03-07T10:11:57.923Z,56.6
2018-03-07T10:12:47.482Z,56.7
2018-03-07T10:13:37.515Z,56.8
2018-03-07T10:14:27.297Z,56.9
2018-03-07T10:15:17.673Z,57
2018-03-07T10:17:52.997Z,57.4
2018-03-07T10:18:42.481Z,57.4
2018-03-07T10:19:32.560Z,57.6
2018-03-07T10:22:03.215Z,57.8
2018-03-07T10:22:53.494Z,57.9
2018-03-07T10:23:43.336Z,58
2018-03-07T10:24:33.103Z,58.1
2018-03-07T10:25:23.453Z,58.3
2018-03-07T10:26:13.523Z,58.4
2018-03-07T10:27:03.573Z,58.4
2018-03-07T10:27:53.637Z,58.5
2018-03-07T10:28:43.693Z,58.6
2018-03-07T10:29:33.747Z,58.7
2018-03-07T10:30:23.836Z,58.8
2018-03-07T10:31:13.921Z,58.9
2018-03-07T10:32:03.640Z,58.9
2018-03-07T10:32:53.693Z,59
2018-03-07T10:33:44.046Z,59.1
2018-03-07T10:34:34.108Z,59.2
2018-03-07T10:35:24.155Z,59.3
2018-03-07T10:36:13.941Z,59.4
2018-03-07T10:37:04.285Z,59.5
2018-03-07T10:37:54.346Z,59.6
2018-03-07T10:38:44.107Z,59.7
2018-03-07T10:39:34.454Z,59.8
2018-03-07T10:40:24.515Z,59.9
2018-03-07T10:41:14.582Z,59.9
2018-03-07T10:42:04.621Z,60
2018-03-07T10:42:54.674Z,60.1
2018-03-07T10:43:44.744Z,60.2
2018-03-07T10:44:34.811Z,60.3
2018-03-07T10:45:24.857Z,60.4
2018-03-07T10:46:14.926Z,60.4
2018-03-07T10:47:04.703Z,60.6
2018-03-07T10:47:55.061Z,60.6
2018-03-07T10:48:45.102Z,60.6
2018-03-07T10:49:35.166Z,60.8
2018-03-07T10:50:24.939Z,60.8
2018-03-07T10:51:15.286Z,60.9
2018-03-07T10:52:05.046Z,61
2018-03-07T10:52:55.104Z,61.1
2018-03-07T10:53:45.463Z,61.2
2018-03-07T10:54:35.031Z,61.3
2018-03-07T10:55:25.093Z,61.4
2018-03-07T10:56:15.049Z,61.4
2018-03-07T10:57:05.406Z,61.4
2018-03-07T10:57:55.561Z,61.5
2018-03-07T10:58:45.816Z,61.6
2018-03-07T10:59:35.850Z,61.7
2018-03-07T11:00:25.913Z,61.8
2018-03-07T11:01:15.990Z,61.9
2018-03-07T11:02:05.556Z,61.9
2018-03-07T11:02:55.598Z,62.1
2018-03-07T11:03:46.155Z,62.1
2018-03-07T11:04:36.223Z,62.3
2018-03-07T11:05:26.273Z,62.3
2018-03-07T11:06:16.338Z,62.4
2018-03-07T11:07:06.390Z,62.4
2018-03-07T11:07:56.469Z,62.6
2018-03-07T11:08:46.510Z,62.4
2018-03-07T11:09:36.285Z,62.1
2018-03-07T11:10:29.653Z,61.9
2018-03-07T11:11:16.688Z,61.8
2018-03-07T11:12:06.745Z,61.6
2018-03-07T11:12:56.525Z,61.6
2018-03-07T11:13:46.865Z,61.9
2018-03-07T11:14:36.641Z,62
2018-03-07T11:15:26.685Z,61.8
2018-03-07T11:16:17.032Z,61.6
2018-03-07T11:17:07.092Z,61.2
2018-03-07T11:17:56.862Z,60.8
2018-03-07T11:18:47.226Z,60.6
2018-03-07T11:19:37.277Z,60.3
2018-03-07T11:20:26.835Z,60.2
2018-03-07T20:32:53.538Z,5.6
2018-03-07T20:33:43.610Z,5.6
2018-03-07T20:34:33.667Z,5.6
2018-03-07T20:35:23.452Z,5.6
2018-03-07T20:36:13.509Z,5.5
2018-03-07T20:37:03.560Z,5.5
2018-03-07T20:37:53.900Z,5.5
2018-03-07T20:38:43.947Z,5.5
2018-03-07T20:39:34.012Z,5.4
2018-03-07T20:40:24.076Z,5.4
2018-03-07T20:41:13.856Z,5.4
2018-03-07T20:42:03.628Z,5.4
2018-03-07T20:42:53.961Z,5.4
2018-03-07T20:43:44.317Z,5.4